createdAt,value
2018-08-06T00:01:01.947Z,100167.00
2018-08-06T00:03:31.237Z,100160.00
2018-08-06T00:06:00.913Z,100151.00
2018-08-06T00:08:30.325Z,100149.00
2018-08-06T00:10:59.426Z,100149.00
2018-08-06T00:13:28.564Z,100151.00
2018-08-06T00:15:57.865Z,100148.00
2018-08-06T00:18:26.966Z,100146.00
2018-08-06T00:20:56.283Z,100142.00
2018-08-06T00:23:25.380Z,100140.00
2018-08-06T00:25:54.495Z,100143.00
2018-08-06T00:28:23.667Z,100137.00
2018-08-06T00:30:53.407Z,100131.00
2018-08-06T00:33:22.669Z,100127.00
2018-08-06T00:35:52.308Z,100127.00
2018-08-06T00:38:21.501Z,100123.00
2018-08-06T00:40:50.756Z,100127.00
2018-08-06T00:43:20.640Z,100124.00
2018-08-06T00:45:50.957Z,100117.00
2018-08-06T00:48:20.923Z,100114.00
2018-08-06T00:50:50.782Z,100115.00
2018-08-06T00:53:19.923Z,100120.00
2018-08-06T00:55:50.811Z,100123.00
2018-08-06T00:58:20.106Z,100115.00
2018-08-06T01:00:49.180Z,100111.00
2018-08-06T01:03:19.132Z,100108.00
2018-08-06T01:05:48.438Z,100109.00
2018-08-06T01:08:17.599Z,100102.00
2018-08-06T01:10:46.679Z,100101.00
2018-08-06T01:13:15.895Z,100095.00
2018-08-06T01:15:47.170Z,100094.00
2018-08-06T01:18:17.758Z,100086.00
2018-08-06T01:20:47.585Z,100086.00
2018-08-06T01:23:17.121Z,100085.00
2018-08-06T01:25:47.917Z,100080.00
2018-08-06T01:28:18.248Z,100077.00
2018-08-06T01:30:47.320Z,100076.00
2018-08-06T01:33:16.807Z,100080.00
2018-08-06T01:35:45.963Z,100074.00
2018-08-06T01:38:15.237Z,100078.00
2018-08-06T01:40:44.545Z,100079.00
2018-08-06T01:43:14.528Z,100075.00
2018-08-06T01:45:43.958Z,100070.00
2018-08-06T01:48:13.188Z,100069.00
2018-08-06T01:50:42.531Z,100069.00
2018-08-06T01:53:12.464Z,100068.00
2018-08-06T01:55:41.648Z,100065.00
2018-08-06T01:58:11.440Z,100068.00
2018-08-06T02:00:40.855Z,100063.00
2018-08-06T02:03:10.628Z,100064.00
2018-08-06T02:05:39.905Z,100063.00
2018-08-06T02:08:09.183Z,100057.00
2018-08-06T02:10:38.436Z,100052.00
2018-08-06T02:13:09.519Z,100051.00
2018-08-06T02:15:39.285Z,100048.00
2018-08-06T02:18:09.577Z,100047.00
2018-08-06T02:20:38.728Z,100040.00
2018-08-06T02:23:07.938Z,100041.00
2018-08-06T02:25:37.531Z,100040.00
2018-08-06T02:28:07.063Z,100028.00
2018-08-06T02:30:36.167Z,100031.00
2018-08-06T02:33:08.943Z,100030.00
2018-08-06T02:35:38.269Z,100029.00
2018-08-06T02:38:07.545Z,100025.00
2018-08-06T02:40:36.652Z,100022.00
2018-08-06T02:43:06.072Z,100019.00
2018-08-06T02:45:35.256Z,100020.00
2018-08-06T02:48:05.740Z,100017.00
2018-08-06T02:50:35.382Z,100017.00
2018-08-06T02:53:07.017Z,100012.00
2018-08-06T02:55:36.317Z,100009.00
2018-08-06T02:58:06.505Z,100011.00
2018-08-06T03:00:36.424Z,100009.00
2018-08-06T03:03:06.358Z,100003.00
2018-08-06T03:05:35.776Z,99998.00
2018-08-06T03:08:05.194Z,99999.00
2018-08-06T03:10:34.485Z,100002.00
2018-08-06T03:13:03.995Z,99995.00
2018-08-06T03:15:35.048Z,99999.00
2018-08-06T03:18:05.187Z,99994.00
2018-08-06T03:20:34.759Z,99991.00
2018-08-06T03:23:04.326Z,99986.00
2018-08-06T03:25:35.586Z,99987.00
2018-08-06T03:28:05.213Z,99989.00
2018-08-06T03:30:34.845Z,99988.00
2018-08-06T03:33:05.911Z,99983.00
2018-08-06T03:35:35.278Z,99982.00
2018-08-06T03:38:06.783Z,99979.00
2018-08-06T03:40:36.228Z,99977.00
2018-08-06T03:43:05.524Z,99981.00
2018-08-06T03:45:34.805Z,99981.00
2018-08-06T03:48:04.212Z,99978.00
2018-08-06T03:50:33.620Z,99973.00
2018-08-06T03:53:03.120Z,99974.00
2018-08-06T03:55:32.441Z,99971.00
2018-08-06T03:58:02.161Z,99970.00
2018-08-06T04:00:31.751Z,99972.00
2018-08-06T04:03:01.325Z,99970.00
2018-08-06T04:05:30.904Z,99966.00
2018-08-06T04:08:00.245Z,99971.00
2018-08-06T04:10:29.569Z,99968.00
2018-08-06T04:12:59.334Z,99967.00
2018-08-06T04:15:29.145Z,99965.00
2018-08-06T04:17:58.514Z,99963.00
2018-08-06T04:20:28.277Z,99961.00
2018-08-06T04:22:57.498Z,99964.00
2018-08-06T04:25:27.700Z,99968.00
2018-08-06T04:27:57.999Z,99966.00
2018-08-06T04:30:27.963Z,99969.00
2018-08-06T04:32:58.205Z,99964.00
2018-08-06T04:35:28.778Z,99961.00
2018-08-06T04:37:59.656Z,99957.00
2018-08-06T04:40:29.130Z,99959.00
2018-08-06T04:42:59.343Z,99960.00
2018-08-06T04:45:29.645Z,99954.00
2018-08-06T04:48:00.519Z,99956.00
2018-08-06T04:50:29.850Z,99958.00
2018-08-06T04:53:00.093Z,99953.00
2018-08-06T04:55:30.674Z,99957.00
2018-08-06T04:58:00.777Z,99955.00
2018-08-06T05:00:31.506Z,99954.00
2018-08-06T05:03:01.800Z,99953.00
2018-08-06T05:05:33.613Z,99952.00
2018-08-06T05:08:03.133Z,99958.00
2018-08-06T05:10:32.781Z,99950.00
2018-08-06T05:13:02.521Z,99950.00
2018-08-06T05:15:32.293Z,99948.00
2018-08-06T05:18:02.043Z,99943.00
2018-08-06T05:20:32.880Z,99949.00
2018-08-06T05:23:02.201Z,99947.00
2018-08-06T05:25:31.647Z,99943.00
2018-08-06T05:28:01.020Z,99941.00
2018-08-06T05:30:30.541Z,99935.00
2018-08-06T05:32:59.872Z,99931.00
2018-08-06T05:35:29.124Z,99927.00
2018-08-06T05:37:59.436Z,99932.00
2018-08-06T05:40:28.567Z,99926.00
2018-08-06T05:42:57.868Z,99924.00
2018-08-06T05:45:27.113Z,99922.00
2018-08-06T05:47:56.488Z,99926.00
2018-08-06T05:50:25.711Z,99923.00
2018-08-06T05:52:54.751Z,99927.00
2018-08-06T05:55:23.895Z,99924.00
2018-08-06T05:57:53.072Z,99928.00
2018-08-06T06:00:22.319Z,99925.00
2018-08-06T06:02:51.524Z,99924.00
2018-08-06T06:05:20.833Z,99924.00
2018-08-06T06:07:49.997Z,99926.00
2018-08-06T06:10:19.237Z,99927.00
2018-08-06T06:12:48.581Z,99928.00
2018-08-06T06:15:18.052Z,99935.00
2018-08-06T06:17:47.576Z,99939.00
2018-08-06T06:20:16.837Z,99944.00
2018-08-06T06:22:46.381Z,99941.00
2018-08-06T06:25:15.587Z,99943.00
2018-08-06T06:27:45.180Z,99939.00
2018-08-06T06:30:16.444Z,99937.00
2018-08-06T06:32:45.788Z,99934.00
2018-08-06T06:35:15.019Z,99937.00
2018-08-06T06:37:44.399Z,99929.00
2018-08-06T06:40:13.616Z,99928.00
2018-08-06T06:42:42.942Z,99926.00
2018-08-06T06:45:12.069Z,99927.00
2018-08-06T06:47:41.235Z,99930.00
2018-08-06T06:50:11.269Z,99928.00
2018-08-06T06:52:40.519Z,99924.00
2018-08-06T06:55:12.411Z,99927.00
2018-08-06T06:57:42.202Z,99934.00
2018-08-06T07:00:11.947Z,99926.00
2018-08-06T07:02:41.954Z,99927.00
2018-08-06T07:05:11.283Z,99929.00
2018-08-06T07:07:41.372Z,99922.00
2018-08-06T07:10:12.011Z,99923.00
2018-08-06T07:12:42.657Z,99925.00
2018-08-06T07:15:15.505Z,99922.00
2018-08-06T07:17:47.081Z,99921.00
2018-08-06T07:20:18.381Z,99914.00
2018-08-06T07:22:47.489Z,99911.00
2018-08-06T07:25:16.724Z,99913.00
2018-08-06T07:27:46.032Z,99913.00
2018-08-06T07:30:16.519Z,99904.00
2018-08-06T07:32:46.530Z,99900.00
2018-08-06T07:35:17.090Z,99899.00
2018-08-06T07:37:46.310Z,99896.00
2018-08-06T07:40:15.995Z,99884.00
2018-08-06T07:42:45.430Z,99886.00
2018-08-06T07:45:17.431Z,99892.00
2018-08-06T07:47:47.513Z,99888.00
2018-08-06T07:50:18.352Z,99889.00
2018-08-06T07:52:47.849Z,99892.00
2018-08-06T07:55:17.370Z,99889.00
2018-08-06T07:57:46.493Z,99885.00
2018-08-06T08:00:17.924Z,99887.00
2018-08-06T08:02:47.178Z,99888.00
2018-08-06T08:05:17.424Z,99881.00
2018-08-06T08:07:47.498Z,99886.00
2018-08-06T08:10:21.780Z,99885.00
2018-08-06T08:12:50.953Z,99888.00
2018-08-06T08:15:26.028Z,99882.00
2018-08-06T08:17:57.012Z,99879.00
2018-08-06T08:20:27.250Z,99875.00
2018-08-06T08:22:56.473Z,99876.00
2018-08-06T08:25:25.766Z,99877.00
2018-08-06T08:27:54.826Z,99874.00
2018-08-06T08:30:24.093Z,99868.00
2018-08-06T08:32:53.269Z,99860.00
2018-08-06T08:35:28.385Z,99864.00
2018-08-06T08:37:57.746Z,99867.00
2018-08-06T08:40:26.910Z,99863.00
2018-08-06T08:42:56.091Z,99862.00
2018-08-06T08:45:25.383Z,99863.00
2018-08-06T08:47:54.491Z,99857.00
2018-08-06T08:50:23.618Z,99855.00
2018-08-06T08:52:52.792Z,99857.00
2018-08-06T08:55:22.003Z,99858.00
2018-08-06T08:57:51.341Z,99850.00
2018-08-06T09:00:22.544Z,99855.00
2018-08-06T09:02:52.720Z,99847.00
2018-08-06T09:05:22.300Z,99837.00
2018-08-06T09:07:52.539Z,99841.00
2018-08-06T09:10:21.758Z,99840.00
2018-08-06T09:12:51.431Z,99838.00
2018-08-06T09:15:26.181Z,99835.00
2018-08-06T09:17:55.452Z,99838.00
2018-08-06T09:20:26.127Z,99832.00
2018-08-06T09:22:55.413Z,99834.00
2018-08-06T09:25:24.665Z,99829.00
2018-08-06T09:27:54.525Z,99826.00
2018-08-06T09:30:25.365Z,99825.00
2018-08-06T09:32:56.396Z,99819.00
2018-08-06T09:35:25.758Z,99817.00
2018-08-06T09:37:56.326Z,99818.00
2018-08-06T09:40:25.970Z,99820.00
2018-08-06T09:42:56.515Z,99818.00
2018-08-06T09:45:26.435Z,99820.00
2018-08-06T09:47:55.709Z,99817.00
2018-08-06T09:50:25.057Z,99816.00
2018-08-06T09:52:54.973Z,99806.00
2018-08-06T09:55:27.465Z,99807.00
2018-08-06T09:57:57.036Z,99802.00
2018-08-06T10:00:31.836Z,99799.00
2018-08-06T10:03:02.085Z,99795.00
2018-08-06T10:05:31.819Z,99792.00
2018-08-06T10:08:01.112Z,99787.00
2018-08-06T10:10:30.562Z,99789.00
2018-08-06T10:12:59.722Z,99781.00
2018-08-06T10:15:29.264Z,99782.00
2018-08-06T10:17:59.949Z,99781.00
2018-08-06T10:20:29.251Z,99776.00
2018-08-06T10:22:58.607Z,99773.00
2018-08-06T10:25:28.237Z,99771.00
2018-08-06T10:27:57.348Z,99768.00
2018-08-06T10:30:26.581Z,99763.00
2018-08-06T10:32:56.327Z,99768.00
2018-08-06T10:35:25.490Z,99766.00
2018-08-06T10:37:54.685Z,99763.00
2018-08-06T10:40:24.478Z,99757.00
2018-08-06T10:42:53.620Z,99756.00
2018-08-06T10:45:24.631Z,99745.00
2018-08-06T10:47:54.238Z,99749.00
2018-08-06T10:50:23.365Z,99749.00
2018-08-06T10:52:52.567Z,99743.00
2018-08-06T10:55:21.742Z,99740.00
2018-08-06T10:57:51.082Z,99738.00
2018-08-06T11:00:22.494Z,99729.00
2018-08-06T11:02:52.297Z,99727.00
2018-08-06T11:05:21.841Z,99721.00
2018-08-06T11:07:51.065Z,99719.00
2018-08-06T11:10:21.517Z,99719.00
2018-08-06T11:12:50.811Z,99719.00
2018-08-06T11:15:22.239Z,99717.00
2018-08-06T11:17:51.551Z,99712.00
2018-08-06T11:20:21.569Z,99710.00
2018-08-06T11:22:51.042Z,99703.00
2018-08-06T11:25:21.938Z,99703.00
2018-08-06T11:27:51.189Z,99700.00
2018-08-06T11:30:22.036Z,99699.00
2018-08-06T11:32:52.030Z,99691.00
2018-08-06T11:35:21.640Z,99689.00
2018-08-06T11:37:51.325Z,99686.00
2018-08-06T11:40:20.406Z,99687.00
2018-08-06T11:42:49.854Z,99679.00
2018-08-06T11:45:21.431Z,99675.00
2018-08-06T11:47:50.596Z,99674.00
2018-08-06T11:50:19.836Z,99668.00
2018-08-06T11:52:49.204Z,99666.00
2018-08-06T11:55:18.430Z,99669.00
2018-08-06T11:57:47.635Z,99668.00
2018-08-06T12:00:20.558Z,99664.00
2018-08-06T12:02:49.844Z,99662.00
2018-08-06T12:05:19.396Z,99658.00
2018-08-06T12:07:48.742Z,99656.00
2018-08-06T12:10:19.152Z,99659.00
2018-08-06T12:12:49.148Z,99655.00
2018-08-06T12:15:18.608Z,99652.00
2018-08-06T12:17:47.863Z,99646.00
2018-08-06T12:20:19.069Z,99651.00
2018-08-06T12:22:49.673Z,99648.00
2018-08-06T12:25:19.468Z,99644.00
2018-08-06T12:27:49.496Z,99643.00
2018-08-06T12:30:22.364Z,99646.00
2018-08-06T12:32:52.555Z,99644.00
2018-08-06T12:35:22.004Z,99645.00
2018-08-06T12:37:51.431Z,99646.00
2018-08-06T12:40:22.173Z,99642.00
2018-08-06T12:42:51.752Z,99633.00
2018-08-06T12:45:21.306Z,99638.00
2018-08-06T12:47:50.616Z,99634.00
2018-08-06T12:50:19.919Z,99640.00
2018-08-06T12:52:49.320Z,99630.00
2018-08-06T12:55:19.238Z,99628.00
2018-08-06T12:57:48.845Z,99621.00
2018-08-06T13:00:26.150Z,99616.00
2018-08-06T13:02:55.769Z,99621.00
2018-08-06T13:05:25.598Z,99621.00
2018-08-06T13:07:54.909Z,99619.00
2018-08-06T13:10:24.192Z,99613.00
2018-08-06T13:12:53.658Z,99609.00
2018-08-06T13:15:23.220Z,99607.00
2018-08-06T13:17:52.430Z,99600.00
2018-08-06T13:20:21.639Z,99599.00
2018-08-06T13:22:50.815Z,99598.00
2018-08-06T13:25:20.697Z,99595.00
2018-08-06T13:27:50.632Z,99599.00
2018-08-06T13:30:21.127Z,99593.00
2018-08-06T13:32:50.266Z,99590.00
2018-08-06T13:35:19.493Z,99592.00
2018-08-06T13:37:48.638Z,99589.00
2018-08-06T13:40:18.181Z,99585.00
2018-08-06T13:42:47.543Z,99584.00
2018-08-06T13:45:16.647Z,99578.00
2018-08-06T13:47:45.815Z,99579.00
2018-08-06T13:50:15.372Z,99571.00
2018-08-06T13:52:45.760Z,99573.00
2018-08-06T13:55:16.173Z,99576.00
2018-08-06T13:57:46.577Z,99573.00
2018-08-06T14:00:18.525Z,99569.00
2018-08-06T14:02:47.979Z,99565.00
2018-08-06T14:05:18.143Z,99555.00
2018-08-06T14:07:48.380Z,99557.00
2018-08-06T14:10:17.890Z,99556.00
2018-08-06T14:12:47.128Z,99553.00
2018-08-06T14:15:16.316Z,99553.00
2018-08-06T14:17:45.518Z,99543.00
2018-08-06T14:20:16.747Z,99542.00
2018-08-06T14:22:45.967Z,99542.00
2018-08-06T14:25:15.448Z,99541.00
2018-08-06T14:27:44.647Z,99541.00
2018-08-06T14:30:15.347Z,99541.00
2018-08-06T14:32:44.846Z,99536.00
2018-08-06T14:35:14.581Z,99531.00
2018-08-06T14:37:44.492Z,99532.00
2018-08-06T14:40:16.495Z,99528.00
2018-08-06T14:42:46.040Z,99525.00
2018-08-06T14:45:15.190Z,99527.00
2018-08-06T14:47:44.421Z,99524.00
2018-08-06T14:50:14.780Z,99514.00
2018-08-06T14:52:44.132Z,99513.00
2018-08-06T14:55:13.974Z,99520.00
2018-08-06T14:57:43.223Z,99516.00
2018-08-06T15:00:17.276Z,99520.00
2018-08-06T15:02:46.885Z,99514.00
2018-08-06T15:05:16.153Z,99511.00
2018-08-06T15:07:45.612Z,99502.00
2018-08-06T15:10:15.282Z,99503.00
2018-08-06T15:12:44.735Z,99500.00
2018-08-06T15:15:15.057Z,99494.00
2018-08-06T15:17:44.725Z,99487.00
2018-08-06T15:20:16.452Z,99485.00
2018-08-06T15:22:46.422Z,99485.00
2018-08-06T15:25:17.906Z,99487.00
2018-08-06T15:27:47.109Z,99486.00
2018-08-06T15:30:16.187Z,99479.00
2018-08-06T15:32:45.471Z,99480.00
2018-08-06T15:35:15.023Z,99478.00
2018-08-06T15:37:45.018Z,99476.00
2018-08-06T15:40:16.747Z,99467.00
2018-08-06T15:42:45.840Z,99474.00
2018-08-06T15:45:15.234Z,99469.00
2018-08-06T15:47:45.090Z,99469.00
2018-08-06T15:50:17.885Z,99464.00
2018-08-06T15:52:47.098Z,99465.00
2018-08-06T15:55:16.615Z,99462.00
2018-08-06T15:57:45.989Z,99460.00
2018-08-06T16:00:18.009Z,99459.00
2018-08-06T16:02:47.755Z,99457.00
2018-08-06T16:05:17.397Z,99447.00
2018-08-06T16:07:46.921Z,99446.00
2018-08-06T16:10:17.023Z,99444.00
2018-08-06T16:12:46.201Z,99439.00
2018-08-06T16:15:16.164Z,99445.00
2018-08-06T16:17:45.469Z,99439.00
2018-08-06T16:20:16.006Z,99439.00
2018-08-06T16:22:45.076Z,99432.00
2018-08-06T16:25:14.757Z,99431.00
2018-08-06T16:27:43.954Z,99430.00
2018-08-06T16:30:20.078Z,99433.00
2018-08-06T16:32:49.805Z,99435.00
2018-08-06T16:35:21.132Z,99429.00
2018-08-06T16:37:51.481Z,99429.00
2018-08-06T16:40:20.611Z,99423.00
2018-08-06T16:42:50.673Z,99421.00
2018-08-06T16:45:20.056Z,99427.00
2018-08-06T16:47:49.509Z,99421.00
2018-08-06T16:50:19.826Z,99430.00
2018-08-06T16:52:50.298Z,99427.00
2018-08-06T16:55:19.559Z,99420.00
2018-08-06T16:57:48.764Z,99416.00
2018-08-06T17:00:19.552Z,99418.00
2018-08-06T17:02:48.935Z,99416.00
2018-08-06T17:05:17.948Z,99413.00
2018-08-06T17:07:48.182Z,99415.00
2018-08-06T17:10:19.270Z,99418.00
2018-08-06T17:12:50.778Z,99417.00
2018-08-06T17:15:21.021Z,99419.00
2018-08-06T17:17:53.412Z,99414.00
2018-08-06T17:20:23.672Z,99417.00
2018-08-06T17:22:53.245Z,99418.00
2018-08-06T17:25:22.472Z,99414.00
2018-08-06T17:27:51.552Z,99413.00
2018-08-06T17:30:20.776Z,99410.00
2018-08-06T17:32:49.948Z,99414.00
2018-08-06T17:35:19.103Z,99409.00
2018-08-06T17:37:48.195Z,99409.00
2018-08-06T17:40:18.867Z,99409.00
2018-08-06T17:42:48.493Z,99407.00
2018-08-06T17:45:22.568Z,99409.00
2018-08-06T17:47:51.670Z,99405.00
2018-08-06T17:50:22.284Z,99406.00
2018-08-06T17:52:52.265Z,99402.00
2018-08-06T17:55:22.287Z,99403.00
2018-08-06T17:57:51.412Z,99409.00
2018-08-06T18:00:21.136Z,99404.00
2018-08-06T18:02:50.562Z,99399.00
2018-08-06T18:05:20.883Z,99401.00
2018-08-06T18:07:50.192Z,99399.00
2018-08-06T18:10:19.984Z,99400.00
2018-08-06T18:12:49.122Z,99404.00
2018-08-06T18:15:19.923Z,99403.00
2018-08-06T18:17:49.203Z,99398.00
2018-08-06T18:20:19.560Z,99397.00
2018-08-06T18:22:49.394Z,99401.00
2018-08-06T18:25:21.556Z,99397.00
2018-08-06T18:27:51.097Z,99402.00
2018-08-06T18:30:21.989Z,99402.00
2018-08-06T18:32:51.959Z,99401.00
2018-08-06T18:35:21.595Z,99404.00
2018-08-06T18:37:50.745Z,99400.00
2018-08-06T18:40:21.449Z,99403.00
2018-08-06T18:42:51.345Z,99408.00
2018-08-06T18:45:21.654Z,99405.00
2018-08-06T18:47:51.358Z,99403.00
2018-08-06T18:50:22.034Z,99403.00
2018-08-06T18:52:51.825Z,99405.00
2018-08-06T18:55:33.137Z,99411.00
2018-08-06T18:58:02.391Z,99408.00
2018-08-06T19:00:32.155Z,99411.00
2018-08-06T19:03:01.443Z,99412.00
2018-08-06T19:05:30.968Z,99410.00
2018-08-06T19:08:00.186Z,99418.00
2018-08-06T19:10:29.525Z,99418.00
2018-08-06T19:13:04.252Z,99415.00
2018-08-06T19:15:33.636Z,99418.00
2018-08-06T19:18:09.063Z,99419.00
2018-08-06T19:20:40.604Z,99420.00
2018-08-06T19:23:10.190Z,99420.00
2018-08-06T19:25:40.415Z,99424.00
2018-08-06T19:28:10.207Z,99424.00
2018-08-06T19:30:44.788Z,99426.00
2018-08-06T19:33:14.924Z,99428.00
2018-08-06T19:35:44.543Z,99431.00
2018-08-06T19:38:13.741Z,99424.00
2018-08-06T19:40:44.595Z,99434.00
2018-08-06T19:43:19.479Z,99433.00
2018-08-06T19:45:49.296Z,99434.00
2018-08-06T19:48:18.572Z,99437.00
2018-08-06T19:50:49.321Z,99437.00
2018-08-06T19:53:19.501Z,99432.00
2018-08-06T19:55:54.127Z,99431.00
2018-08-06T19:58:23.790Z,99427.00
2018-08-06T20:00:53.741Z,99422.00
2018-08-06T20:03:25.141Z,99430.00
2018-08-06T20:05:54.622Z,99430.00
2018-08-06T20:08:24.052Z,99430.00
2018-08-06T20:10:54.411Z,99431.00
2018-08-06T20:13:23.889Z,99430.00
2018-08-06T20:15:53.125Z,99428.00
2018-08-06T20:18:22.430Z,99426.00
2018-08-06T20:20:53.435Z,99427.00
2018-08-06T20:23:22.874Z,99435.00
2018-08-06T20:25:52.571Z,99441.00
2018-08-06T20:28:22.046Z,99445.00
2018-08-06T20:30:51.646Z,99440.00
2018-08-06T20:33:22.063Z,99437.00
2018-08-06T20:35:51.399Z,99440.00
2018-08-06T20:38:20.752Z,99441.00
2018-08-06T20:40:50.736Z,99434.00
2018-08-06T20:43:19.989Z,99429.00
2018-08-06T20:45:49.703Z,99434.00
2018-08-06T20:48:19.059Z,99433.00
2018-08-06T20:50:48.321Z,99432.00
2018-08-06T20:53:18.155Z,99432.00
2018-08-06T20:55:51.767Z,99433.00
2018-08-06T20:58:21.017Z,99431.00
2018-08-06T21:00:50.113Z,99435.00
2018-08-06T21:03:19.234Z,99434.00
2018-08-06T21:05:48.607Z,99433.00
2018-08-06T21:08:17.765Z,99435.00
2018-08-06T21:10:47.049Z,99435.00
2018-08-06T21:13:16.177Z,99439.00
2018-08-06T21:15:45.475Z,99433.00
2018-08-06T21:18:15.121Z,99435.00
2018-08-06T21:20:44.731Z,99438.00
2018-08-06T21:23:14.014Z,99441.00
2018-08-06T21:25:43.259Z,99441.00
2018-08-06T21:28:12.529Z,99435.00
2018-08-06T21:30:41.689Z,99436.00
2018-08-06T21:33:10.919Z,99438.00
2018-08-06T21:35:40.433Z,99438.00
2018-08-06T21:38:10.117Z,99435.00
2018-08-06T21:40:39.436Z,99429.00
2018-08-06T21:43:09.076Z,99426.00
2018-08-06T21:45:38.886Z,99427.00
2018-08-06T21:48:08.989Z,99428.00
2018-08-06T21:50:39.821Z,99431.00
2018-08-06T21:53:09.954Z,99430.00
2018-08-06T21:55:41.608Z,99425.00
2018-08-06T21:58:44.557Z,99436.00
2018-08-06T22:01:13.753Z,99435.00
2018-08-06T22:03:43.602Z,99435.00
2018-08-06T22:06:13.882Z,99434.00
2018-08-06T22:08:43.072Z,99436.00
2018-08-06T22:11:12.794Z,99432.00
2018-08-06T22:13:42.062Z,99434.00
2018-08-06T22:16:11.265Z,99432.00
2018-08-06T22:18:40.481Z,99426.00
2018-08-06T22:21:09.920Z,99429.00
2018-08-06T22:23:39.140Z,99430.00
2018-08-06T22:26:08.448Z,99428.00
2018-08-06T22:28:37.611Z,99426.00
2018-08-06T22:31:07.041Z,99425.00
2018-08-06T22:33:36.190Z,99418.00
2018-08-06T22:36:05.399Z,99416.00
2018-08-06T22:38:35.589Z,99417.00
2018-08-06T22:41:04.627Z,99416.00
2018-08-06T22:43:33.768Z,99412.00
2018-08-06T22:46:02.801Z,99401.00
2018-08-06T22:48:31.928Z,99409.00
2018-08-06T22:51:02.015Z,99404.00
2018-08-06T22:53:31.152Z,99406.00
2018-08-06T22:56:06.210Z,99404.00
2018-08-06T22:58:35.273Z,99404.00
2018-08-06T23:01:04.898Z,99406.00
2018-08-06T23:03:34.020Z,99405.00
2018-08-06T23:06:05.012Z,99403.00
2018-08-06T23:08:34.244Z,99403.00
2018-08-06T23:11:03.274Z,99403.00
2018-08-06T23:13:32.353Z,99398.00
2018-08-06T23:16:01.386Z,99396.00
2018-08-06T23:18:31.344Z,99396.00
2018-08-06T23:21:01.136Z,99398.00
2018-08-06T23:23:31.140Z,99395.00
2018-08-06T23:26:01.201Z,99391.00
2018-08-06T23:28:31.628Z,99392.00
2018-08-06T23:31:01.302Z,99390.00
2018-08-06T23:33:31.379Z,99389.00
2018-08-06T23:36:01.379Z,99384.00
2018-08-06T23:38:31.401Z,99383.00
2018-08-06T23:41:01.618Z,99380.00
2018-08-06T23:43:31.399Z,99380.00
2018-08-06T23:46:01.602Z,99374.00
2018-08-06T23:48:32.186Z,99374.00
2018-08-06T23:51:01.280Z,99371.00
2018-08-06T23:53:30.381Z,99370.00
2018-08-06T23:55:59.493Z,99364.00
2018-08-06T23:58:28.561Z,99362.00
